Ulusoy-15 — TCUP4 — position and weather

sailwx.info

Track history (hours):
 
Tides and Currents Weather Stations Pressure Air Temp Water Temp Dewpoint Dewpoint Depression Visibility Wind Speed Wind Dir Waves Ship Positions

Ulusoy-15

Last reported at 2018-Apr-23 13:30 UTC. Time now 2018-Apr-23 13:48 UTC.
Position N 45°38' E 013°46'.

Length 208 m; draft 6.5 m.

Type: Cargo ship. MMSI: 271043165.

Date/timePositionNaut miles runAvg speedWind from/ knotsBaromVisibWave heightAir tempDewpointWater temp
2018-Apr-23 13:30N 45°38' E 013°46'0 0.0
2018-Apr-23 13:01N 45°38' E 013°46'0 0.0
2018-Apr-23 12:31N 45°38' E 013°46'0 0.0
2018-Apr-23 12:00N 45°38' E 013°46'0 0.0
2018-Apr-23 11:31N 45°38' E 013°46'2 4.2
2018-Apr-23 11:00N 45°39' E 013°43'611.9
2018-Apr-23 10:31N 45°37' E 013°35'611.4
2018-Apr-23 10:01N 45°34' E 013°28'611.3
2018-Apr-23 09:30N 45°30' E 013°22'611.3
2018-Apr-23 09:01N 45°26' E 013°16'611.3
2018-Apr-23 08:31N 45°22' E 013°11'611.2
2018-Apr-23 08:01N 45°16' E 013°13'611.2
2018-Apr-23 07:31N 45°11' E 013°15'611.2
2018-Apr-23 07:00N 45°05' E 013°18'611.3
2018-Apr-23 06:30N 45°00' E 013°21'611.3
2018-Apr-23 06:01N 44°55' E 013°24'611.4
2018-Apr-23 05:31N 44°51' E 013°29'611.4
2018-Apr-23 05:00N 44°46' E 013°33'611.5
2018-Apr-23 04:30N 44°41' E 013°37'611.5
2018-Apr-23 03:58N 44°36' E 013°42'1416.1
2018-Apr-23 03:05N 44°24' E 013°53'117.8
2018-Apr-23 03:00N 44°22' E 013°54'917.8
2018-Apr-23 02:30N 44°15' E 014°01'1018.0
2018-Apr-23 01:56N 44°06' E 014°09'818.0
2018-Apr-23 01:30N 44°01' E 014°16'62915.5
2018-Apr-21 08:55N 37°14' E 024°48'818.4
2018-Apr-21 08:30N 37°18' E 024°56'1018.5
2018-Apr-21 07:58N 37°25' E 025°05'918.4
2018-Apr-21 07:31N 37°30' E 025°14'918.1
2018-Apr-21 07:00N 37°36' E 025°22'918.0
2018-Apr-21 06:31N 37°43' E 025°30'917.7
2018-Apr-21 06:00N 37°49' E 025°38'3 0.1
2018-Apr-20 01:28N 37°50' E 025°41'612.2
2018-Apr-20 01:00N 37°47' E 025°36'612.2
2018-Apr-20 00:30N 37°42' E 025°31'611.8
2018-Apr-20 00:00N 37°38' E 025°25'611.7
2018-Apr-19 23:29N 37°34' E 025°20'511.3
2018-Apr-19 23:00N 37°30' E 025°15'611.6
2018-Apr-19 22:30N 37°27' E 025°09'1112.1
2018-Apr-19 21:34N 37°20' E 024°58'112.6
2018-Apr-19 21:30N 37°19' E 024°57'612.4
2018-Apr-19 21:00N 37°15' E 024°51'64115.5
2018-Apr-18 03:37N 44°06' E 014°03'321.1
2018-Apr-18 03:29N 44°08' E 014°01'1021.2
2018-Apr-18 03:00N 44°16' E 013°53'1019.5
2018-Apr-18 02:30N 44°25' E 013°46'612.3
2018-Apr-18 02:00N 44°30' E 013°41'713.2
2018-Apr-18 01:30N 44°35' E 013°36'612.5
2018-Apr-18 01:00N 44°41' E 013°31'918.0
2018-Apr-18 00:30N 44°48' E 013°24'918.9
2018-Apr-18 00:00N 44°56' E 013°17'1020.0
2018-Apr-17 23:30N 45°05' E 013°09'1019.6
2018-Apr-17 23:00N 45°13' E 013°03'918.4
2018-Apr-17 22:30N 45°23' E 013°03'713.4
2018-Apr-17 22:01N 45°27' E 013°10'713.1
2018-Apr-17 21:31N 45°32' E 013°16'612.9
2018-Apr-17 21:01N 45°35' E 013°24'612.8
2018-Apr-17 20:31N 45°38' E 013°33'612.6
2018-Apr-17 20:00N 45°39' E 013°42'3 6.0
2018-Apr-17 19:30N 45°38' E 013°46'0 0.0
2018-Apr-17 19:00N 45°38' E 013°46'0 0.0
2018-Apr-17 18:30N 45°38' E 013°46'0 0.0
2018-Apr-17 18:00N 45°38' E 013°46'0 0.0
2018-Apr-17 17:30N 45°38' E 013°46'0 0.0
2018-Apr-17 16:58N 45°38' E 013°46'0 0.0
2018-Apr-17 16:30N 45°38' E 013°46'0 0.0
2018-Apr-17 16:00N 45°38' E 013°46'0 0.0
2018-Apr-17 15:28N 45°38' E 013°46'0 0.0
2018-Apr-17 15:00N 45°38' E 013°46'0 0.0
2018-Apr-17 14:30N 45°38' E 013°46'0 0.0
2018-Apr-17 14:00N 45°38' E 013°46'0 0.0
2018-Apr-17 13:30N 45°38' E 013°46'0 0.0
2018-Apr-17 13:00N 45°38' E 013°46'0 0.0
2018-Apr-17 12:30N 45°38' E 013°46'0 0.0
2018-Apr-17 12:00N 45°38' E 013°46'0 0.0
2018-Apr-17 11:30N 45°38' E 013°46'0 0.0
2018-Apr-17 11:00N 45°38' E 013°46'0 0.0
2018-Apr-17 10:30N 45°38' E 013°46'0 0.0
2018-Apr-17 10:00N 45°38' E 013°46'0 0.0
2018-Apr-17 09:29N 45°38' E 013°46'0 0.0
2018-Apr-17 09:00N 45°38' E 013°46'0 0.0
2018-Apr-17 08:30N 45°38' E 013°46'0 0.0
2018-Apr-17 08:00N 45°38' E 013°46'0 0.0
2018-Apr-17 07:30N 45°38' E 013°46'0 0.0
2018-Apr-17 07:00N 45°38' E 013°46'0 0.0
2018-Apr-17 06:30N 45°38' E 013°46'0 0.0
2018-Apr-17 05:59N 45°38' E 013°46'0 0.0
2018-Apr-17 05:29N 45°38' E 013°46'0 0.0
2018-Apr-17 05:00N 45°38' E 013°46'0 0.0
2018-Apr-17 04:29N 45°38' E 013°46'0 0.0
2018-Apr-17 04:00N 45°38' E 013°46'0 0.0
2018-Apr-17 03:30N 45°38' E 013°46'0 0.0
2018-Apr-17 03:00N 45°38' E 013°46'0 0.0
2018-Apr-17 02:30N 45°38' E 013°46'0 0.0
2018-Apr-17 02:00N 45°38' E 013°46'0 0.0
2018-Apr-17 01:30N 45°38' E 013°46'0 0.0
2018-Apr-17 01:00N 45°38' E 013°46'0 0.0
2018-Apr-17 00:30N 45°38' E 013°46'0 0.0
2018-Apr-17 00:00N 45°38' E 013°46'0 0.0
2018-Apr-16 23:30N 45°38' E 013°46'0 0.0
2018-Apr-16 23:00N 45°38' E 013°46'0 0.0
2018-Apr-16 22:30N 45°38' E 013°46'0 0.0
2018-Apr-16 22:00N 45°38' E 013°46'0 0.0
2018-Apr-16 21:30N 45°38' E 013°46'0 0.0
2018-Apr-16 21:00N 45°38' E 013°46'0 0.0
2018-Apr-16 20:30N 45°38' E 013°46'0 0.0
2018-Apr-16 20:00N 45°38' E 013°46'0 0.0
2018-Apr-16 19:30N 45°38' E 013°46'0 0.0
2018-Apr-16 19:00N 45°38' E 013°46'0 0.0
2018-Apr-16 18:28N 45°38' E 013°46'0 0.0
2018-Apr-16 18:00N 45°38' E 013°46'0 0.0
2018-Apr-16 17:30N 45°38' E 013°46'0 0.0
2018-Apr-16 17:00N 45°38' E 013°46'0 0.0
2018-Apr-16 16:30N 45°38' E 013°46'0 0.0
2018-Apr-16 16:00N 45°38' E 013°46'0 0.0
2018-Apr-16 15:30N 45°38' E 013°46'0 0.0
2018-Apr-16 15:00N 45°38' E 013°46'0 0.0
2018-Apr-16 14:30N 45°38' E 013°46'0 0.0
2018-Apr-16 14:00N 45°38' E 013°46'0 0.0
2018-Apr-16 13:30N 45°38' E 013°46'0 0.0
2018-Apr-16 13:00N 45°38' E 013°46'0 0.0
2018-Apr-16 12:29N 45°38' E 013°46'0 0.0
2018-Apr-16 12:00N 45°38' E 013°46'0 0.0
2018-Apr-16 11:29N 45°38' E 013°46'2 3.3
2018-Apr-16 11:00N 45°39' E 013°44'510.6
2018-Apr-16 10:31N 45°37' E 013°36'611.8
2018-Apr-16 10:00N 45°34' E 013°29'610.9
2018-Apr-16 09:30N 45°31' E 013°23'510.8
2018-Apr-16 09:00N 45°27' E 013°17'510.8
2018-Apr-16 08:30N 45°23' E 013°12'510.5
2018-Apr-16 08:00N 45°18' E 013°13'611.2
2018-Apr-16 07:30N 45°12' E 013°16'611.1
2018-Apr-16 07:00N 45°07' E 013°18'611.6
2018-Apr-16 06:30N 45°01' E 013°21'611.5
2018-Apr-16 06:00N 44°56' E 013°23'611.4
2018-Apr-16 05:30N 44°51' E 013°27'611.5
2018-Apr-16 05:00N 44°46' E 013°31'714.0
2018-Apr-16 04:30N 44°40' E 013°37'816.4
2018-Apr-16 04:00N 44°33' E 013°43'1416.8
2018-Apr-16 03:11N 44°22' E 013°54'616.5
2018-Apr-16 02:48N 44°17' E 013°59'516.8
2018-Apr-16 02:29N 44°13' E 014°03'916.4
2018-Apr-16 01:55N 44°05' E 014°11'63415.3
2018-Apr-14 08:24N 37°15' E 024°48'716.8
2018-Apr-14 08:00N 37°19' E 024°54'916.9
2018-Apr-14 07:28N 37°24' E 025°04'816.8
2018-Apr-14 07:00N 37°29' E 025°11'1017.1
2018-Apr-14 06:25N 37°35' E 025°21'716.8
2018-Apr-14 06:00N 37°40' E 025°27'816.6
2018-Apr-14 05:30N 37°46' E 025°35'  
Track history (hours):
 
Tides and Currents Weather Stations Pressure Air Temp Water Temp Dewpoint Dewpoint Depression Visibility Wind Speed Wind Dir Waves Ship Positions

Ulusoy-15

Last reported at 2018-Apr-23 13:30 UTC. Time now 2018-Apr-23 13:48 UTC.
Position N 45°38' E 013°46'.

Length 208 m; draft 6.5 m.

Type: Cargo ship. MMSI: 271043165.

Date/timePositionNaut miles runAvg speedWind from/ knotsBaromVisibWave heightAir tempDewpointWater temp
2018-Apr-23 13:30N 45°38' E 013°46'0 0.0
2018-Apr-23 13:01N 45°38' E 013°46'0 0.0
2018-Apr-23 12:31N 45°38' E 013°46'0 0.0
2018-Apr-23 12:00N 45°38' E 013°46'0 0.0
2018-Apr-23 11:31N 45°38' E 013°46'2 4.2
2018-Apr-23 11:00N 45°39' E 013°43'611.9
2018-Apr-23 10:31N 45°37' E 013°35'611.4
2018-Apr-23 10:01N 45°34' E 013°28'611.3
2018-Apr-23 09:30N 45°30' E 013°22'611.3
2018-Apr-23 09:01N 45°26' E 013°16'611.3
2018-Apr-23 08:31N 45°22' E 013°11'611.2
2018-Apr-23 08:01N 45°16' E 013°13'611.2
2018-Apr-23 07:31N 45°11' E 013°15'611.2
2018-Apr-23 07:00N 45°05' E 013°18'611.3
2018-Apr-23 06:30N 45°00' E 013°21'611.3
2018-Apr-23 06:01N 44°55' E 013°24'611.4
2018-Apr-23 05:31N 44°51' E 013°29'611.4
2018-Apr-23 05:00N 44°46' E 013°33'611.5
2018-Apr-23 04:30N 44°41' E 013°37'611.5
2018-Apr-23 03:58N 44°36' E 013°42'1416.1
2018-Apr-23 03:05N 44°24' E 013°53'117.8
2018-Apr-23 03:00N 44°22' E 013°54'917.8
2018-Apr-23 02:30N 44°15' E 014°01'1018.0
2018-Apr-23 01:56N 44°06' E 014°09'818.0
2018-Apr-23 01:30N 44°01' E 014°16'62915.5
2018-Apr-21 08:55N 37°14' E 024°48'818.4
2018-Apr-21 08:30N 37°18' E 024°56'1018.5
2018-Apr-21 07:58N 37°25' E 025°05'918.4
2018-Apr-21 07:31N 37°30' E 025°14'918.1
2018-Apr-21 07:00N 37°36' E 025°22'918.0
2018-Apr-21 06:31N 37°43' E 025°30'917.7
2018-Apr-21 06:00N 37°49' E 025°38'3 0.1
2018-Apr-20 01:28N 37°50' E 025°41'612.2
2018-Apr-20 01:00N 37°47' E 025°36'612.2
2018-Apr-20 00:30N 37°42' E 025°31'611.8
2018-Apr-20 00:00N 37°38' E 025°25'611.7
2018-Apr-19 23:29N 37°34' E 025°20'511.3
2018-Apr-19 23:00N 37°30' E 025°15'611.6
2018-Apr-19 22:30N 37°27' E 025°09'1112.1
2018-Apr-19 21:34N 37°20' E 024°58'112.6
2018-Apr-19 21:30N 37°19' E 024°57'612.4
2018-Apr-19 21:00N 37°15' E 024°51'64115.5
2018-Apr-18 03:37N 44°06' E 014°03'321.1
2018-Apr-18 03:29N 44°08' E 014°01'1021.2
2018-Apr-18 03:00N 44°16' E 013°53'1019.5
2018-Apr-18 02:30N 44°25' E 013°46'612.3
2018-Apr-18 02:00N 44°30' E 013°41'713.2
2018-Apr-18 01:30N 44°35' E 013°36'612.5
2018-Apr-18 01:00N 44°41' E 013°31'918.0
2018-Apr-18 00:30N 44°48' E 013°24'918.9
2018-Apr-18 00:00N 44°56' E 013°17'1020.0
2018-Apr-17 23:30N 45°05' E 013°09'1019.6
2018-Apr-17 23:00N 45°13' E 013°03'918.4
2018-Apr-17 22:30N 45°23' E 013°03'713.4
2018-Apr-17 22:01N 45°27' E 013°10'713.1
2018-Apr-17 21:31N 45°32' E 013°16'612.9
2018-Apr-17 21:01N 45°35' E 013°24'612.8
2018-Apr-17 20:31N 45°38' E 013°33'612.6
2018-Apr-17 20:00N 45°39' E 013°42'3 6.0
2018-Apr-17 19:30N 45°38' E 013°46'0 0.0
2018-Apr-17 19:00N 45°38' E 013°46'0 0.0
2018-Apr-17 18:30N 45°38' E 013°46'0 0.0
2018-Apr-17 18:00N 45°38' E 013°46'0 0.0
2018-Apr-17 17:30N 45°38' E 013°46'0 0.0
2018-Apr-17 16:58N 45°38' E 013°46'0 0.0
2018-Apr-17 16:30N 45°38' E 013°46'0 0.0
2018-Apr-17 16:00N 45°38' E 013°46'0 0.0
2018-Apr-17 15:28N 45°38' E 013°46'0 0.0
2018-Apr-17 15:00N 45°38' E 013°46'0 0.0
2018-Apr-17 14:30N 45°38' E 013°46'0 0.0
2018-Apr-17 14:00N 45°38' E 013°46'0 0.0
2018-Apr-17 13:30N 45°38' E 013°46'0 0.0
2018-Apr-17 13:00N 45°38' E 013°46'0 0.0
2018-Apr-17 12:30N 45°38' E 013°46'0 0.0
2018-Apr-17 12:00N 45°38' E 013°46'0 0.0
2018-Apr-17 11:30N 45°38' E 013°46'0 0.0
2018-Apr-17 11:00N 45°38' E 013°46'0 0.0
2018-Apr-17 10:30N 45°38' E 013°46'0 0.0
2018-Apr-17 10:00N 45°38' E 013°46'0 0.0
2018-Apr-17 09:29N 45°38' E 013°46'0 0.0
2018-Apr-17 09:00N 45°38' E 013°46'0 0.0
2018-Apr-17 08:30N 45°38' E 013°46'0 0.0
2018-Apr-17 08:00N 45°38' E 013°46'0 0.0
2018-Apr-17 07:30N 45°38' E 013°46'0 0.0
2018-Apr-17 07:00N 45°38' E 013°46'0 0.0
2018-Apr-17 06:30N 45°38' E 013°46'0 0.0
2018-Apr-17 05:59N 45°38' E 013°46'0 0.0
2018-Apr-17 05:29N 45°38' E 013°46'0 0.0
2018-Apr-17 05:00N 45°38' E 013°46'0 0.0
2018-Apr-17 04:29N 45°38' E 013°46'0 0.0
2018-Apr-17 04:00N 45°38' E 013°46'0 0.0
2018-Apr-17 03:30N 45°38' E 013°46'0 0.0
2018-Apr-17 03:00N 45°38' E 013°46'0 0.0
2018-Apr-17 02:30N 45°38' E 013°46'0 0.0
2018-Apr-17 02:00N 45°38' E 013°46'0 0.0
2018-Apr-17 01:30N 45°38' E 013°46'0 0.0
2018-Apr-17 01:00N 45°38' E 013°46'0 0.0
2018-Apr-17 00:30N 45°38' E 013°46'0 0.0
2018-Apr-17 00:00N 45°38' E 013°46'0 0.0
2018-Apr-16 23:30N 45°38' E 013°46'0 0.0
2018-Apr-16 23:00N 45°38' E 013°46'0 0.0
2018-Apr-16 22:30N 45°38' E 013°46'0 0.0
2018-Apr-16 22:00N 45°38' E 013°46'0 0.0
2018-Apr-16 21:30N 45°38' E 013°46'0 0.0
2018-Apr-16 21:00N 45°38' E 013°46'0 0.0
2018-Apr-16 20:30N 45°38' E 013°46'0 0.0
2018-Apr-16 20:00N 45°38' E 013°46'0 0.0
2018-Apr-16 19:30N 45°38' E 013°46'0 0.0
2018-Apr-16 19:00N 45°38' E 013°46'0 0.0
2018-Apr-16 18:28N 45°38' E 013°46'0 0.0
2018-Apr-16 18:00N 45°38' E 013°46'0 0.0
2018-Apr-16 17:30N 45°38' E 013°46'0 0.0
2018-Apr-16 17:00N 45°38' E 013°46'0 0.0
2018-Apr-16 16:30N 45°38' E 013°46'0 0.0
2018-Apr-16 16:00N 45°38' E 013°46'0 0.0
2018-Apr-16 15:30N 45°38' E 013°46'0 0.0
2018-Apr-16 15:00N 45°38' E 013°46'0 0.0
2018-Apr-16 14:30N 45°38' E 013°46'0 0.0
2018-Apr-16 14:00N 45°38' E 013°46'0 0.0
2018-Apr-16 13:30N 45°38' E 013°46'0 0.0
2018-Apr-16 13:00N 45°38' E 013°46'0 0.0
2018-Apr-16 12:29N 45°38' E 013°46'0 0.0
2018-Apr-16 12:00N 45°38' E 013°46'0 0.0
2018-Apr-16 11:29N 45°38' E 013°46'2 3.3
2018-Apr-16 11:00N 45°39' E 013°44'510.6
2018-Apr-16 10:31N 45°37' E 013°36'611.8
2018-Apr-16 10:00N 45°34' E 013°29'610.9
2018-Apr-16 09:30N 45°31' E 013°23'510.8
2018-Apr-16 09:00N 45°27' E 013°17'510.8
2018-Apr-16 08:30N 45°23' E 013°12'510.5
2018-Apr-16 08:00N 45°18' E 013°13'611.2
2018-Apr-16 07:30N 45°12' E 013°16'611.1
2018-Apr-16 07:00N 45°07' E 013°18'611.6
2018-Apr-16 06:30N 45°01' E 013°21'611.5
2018-Apr-16 06:00N 44°56' E 013°23'611.4
2018-Apr-16 05:30N 44°51' E 013°27'611.5
2018-Apr-16 05:00N 44°46' E 013°31'714.0
2018-Apr-16 04:30N 44°40' E 013°37'816.4
2018-Apr-16 04:00N 44°33' E 013°43'1416.8
2018-Apr-16 03:11N 44°22' E 013°54'616.5
2018-Apr-16 02:48N 44°17' E 013°59'516.8
2018-Apr-16 02:29N 44°13' E 014°03'916.4
2018-Apr-16 01:55N 44°05' E 014°11'63415.3
2018-Apr-14 08:24N 37°15' E 024°48'716.8
2018-Apr-14 08:00N 37°19' E 024°54'916.9
2018-Apr-14 07:28N 37°24' E 025°04'816.8
2018-Apr-14 07:00N 37°29' E 025°11'1017.1
2018-Apr-14 06:25N 37°35' E 025°21'716.8
2018-Apr-14 06:00N 37°40' E 025°27'816.6
2018-Apr-14 05:30N 37°46' E 025°35'  

Dump ship's entire track history